sensor_id;sensor_type;location;lat;lon;timestamp;temperature;humidity
17697;DHT22;8967;47.984;7.842;2022-10-16T00:01:05;16.20;99.90
17697;DHT22;8967;47.984;7.842;2022-10-16T00:03:33;16.20;99.90
17697;DHT22;8967;47.984;7.842;2022-10-16T00:06:03;16.20;99.90
17697;DHT22;8967;47.984;7.842;2022-10-16T00:08:33;16.20;99.90
17697;DHT22;8967;47.984;7.842;2022-10-16T00:11:01;16.20;99.90
17697;DHT22;8967;47.984;7.842;2022-10-16T00:13:30;16.20;99.90
17697;DHT22;8967;47.984;7.842;2022-10-16T00:15:58;16.20;99.90
17697;DHT22;8967;47.984;7.842;2022-10-16T00:18:28;16.20;99.90
17697;DHT22;8967;47.984;7.842;2022-10-16T00:20:56;16.20;99.90
17697;DHT22;8967;47.984;7.842;2022-10-16T00:23:27;16.20;99.90
17697;DHT22;8967;47.984;7.842;2022-10-16T00:25:55;16.20;99.90
17697;DHT22;8967;47.984;7.842;2022-10-16T00:28:22;16.20;99.90
17697;DHT22;8967;47.984;7.842;2022-10-16T00:30:51;16.20;99.90
17697;DHT22;8967;47.984;7.842;2022-10-16T00:33:20;16.20;99.90
17697;DHT22;8967;47.984;7.842;2022-10-16T00:35:47;16.20;99.90
17697;DHT22;8967;47.984;7.842;2022-10-16T00:38:16;16.20;99.90
17697;DHT22;8967;47.984;7.842;2022-10-16T00:40:43;16.20;99.90
17697;DHT22;8967;47.984;7.842;2022-10-16T00:43:14;16.20;99.90
17697;DHT22;8967;47.984;7.842;2022-10-16T00:46:00;16.20;99.90
17697;DHT22;8967;47.984;7.842;2022-10-16T00:48:28;16.10;99.90
17697;DHT22;8967;47.984;7.842;2022-10-16T00:50:56;16.20;99.90
17697;DHT22;8967;47.984;7.842;2022-10-16T00:53:23;16.20;99.90
17697;DHT22;8967;47.984;7.842;2022-10-16T00:55:52;16.10;99.90
17697;DHT22;8967;47.984;7.842;2022-10-16T00:58:20;16.10;99.90
17697;DHT22;8967;47.984;7.842;2022-10-16T01:00:47;16.10;99.90
17697;DHT22;8967;47.984;7.842;2022-10-16T01:03:27;16.10;99.90
17697;DHT22;8967;47.984;7.842;2022-10-16T01:06:02;16.10;99.90
17697;DHT22;8967;47.984;7.842;2022-10-16T01:08:38;16.10;99.90
17697;DHT22;8967;47.984;7.842;2022-10-16T01:11:14;16.10;99.90
17697;DHT22;8967;47.984;7.842;2022-10-16T01:13:47;16.10;99.90
17697;DHT22;8967;47.984;7.842;2022-10-16T01:16:20;16.10;99.90
17697;DHT22;8967;47.984;7.842;2022-10-16T01:18:57;16.10;99.90
17697;DHT22;8967;47.984;7.842;2022-10-16T01:21:27;16.10;99.90
17697;DHT22;8967;47.984;7.842;2022-10-16T01:24:02;16.10;99.90
17697;DHT22;8967;47.984;7.842;2022-10-16T01:26:46;16.10;99.90
17697;DHT22;8967;47.984;7.842;2022-10-16T01:29:20;16.10;99.90
17697;DHT22;8967;47.984;7.842;2022-10-16T01:31:55;16.10;99.90
17697;DHT22;8967;47.984;7.842;2022-10-16T01:34:28;16.10;99.90
17697;DHT22;8967;47.984;7.842;2022-10-16T01:37:02;16.10;99.90
17697;DHT22;8967;47.984;7.842;2022-10-16T01:39:33;16.10;99.90
17697;DHT22;8967;47.984;7.842;2022-10-16T01:42:06;16.10;99.90
17697;DHT22;8967;47.984;7.842;2022-10-16T01:44:37;16.10;99.90
17697;DHT22;8967;47.984;7.842;2022-10-16T01:47:09;16.10;99.90
17697;DHT22;8967;47.984;7.842;2022-10-16T01:49:38;16.10;99.90
17697;DHT22;8967;47.984;7.842;2022-10-16T01:52:10;16.10;99.90
17697;DHT22;8967;47.984;7.842;2022-10-16T01:54:43;16.00;99.90
17697;DHT22;8967;47.984;7.842;2022-10-16T01:57:13;16.10;99.90
17697;DHT22;8967;47.984;7.842;2022-10-16T01:59:46;16.10;99.90
17697;DHT22;8967;47.984;7.842;2022-10-16T02:02:15;16.10;99.90
17697;DHT22;8967;47.984;7.842;2022-10-16T02:04:46;16.00;99.90
17697;DHT22;8967;47.984;7.842;2022-10-16T02:07:15;16.00;99.90
17697;DHT22;8967;47.984;7.842;2022-10-16T02:09:45;16.00;99.90
17697;DHT22;8967;47.984;7.842;2022-10-16T02:12:15;16.00;99.90
17697;DHT22;8967;47.984;7.842;2022-10-16T02:14:47;16.00;99.90
17697;DHT22;8967;47.984;7.842;2022-10-16T02:17:16;16.00;99.90
17697;DHT22;8967;47.984;7.842;2022-10-16T02:19:44;16.00;99.90
17697;DHT22;8967;47.984;7.842;2022-10-16T02:22:16;16.00;99.90
17697;DHT22;8967;47.984;7.842;2022-10-16T02:24:50;16.00;99.90
17697;DHT22;8967;47.984;7.842;2022-10-16T02:27:22;16.00;99.90
17697;DHT22;8967;47.984;7.842;2022-10-16T02:29:55;16.00;99.90
17697;DHT22;8967;47.984;7.842;2022-10-16T02:32:28;16.00;99.90
17697;DHT22;8967;47.984;7.842;2022-10-16T02:34:58;16.00;99.90
17697;DHT22;8967;47.984;7.842;2022-10-16T02:37:26;16.00;99.90
17697;DHT22;8967;47.984;7.842;2022-10-16T02:39:55;15.90;99.90
17697;DHT22;8967;47.984;7.842;2022-10-16T02:42:28;15.90;99.90
17697;DHT22;8967;47.984;7.842;2022-10-16T02:44:56;15.90;99.90
17697;DHT22;8967;47.984;7.842;2022-10-16T02:47:23;15.90;99.90
17697;DHT22;8967;47.984;7.842;2022-10-16T02:49:50;15.90;99.90
17697;DHT22;8967;47.984;7.842;2022-10-16T02:52:17;15.90;99.90
17697;DHT22;8967;47.984;7.842;2022-10-16T02:54:44;15.90;99.90
17697;DHT22;8967;47.984;7.842;2022-10-16T02:57:11;16.00;99.90
17697;DHT22;8967;47.984;7.842;2022-10-16T02:59:38;16.00;99.90
17697;DHT22;8967;47.984;7.842;2022-10-16T03:02:06;16.00;99.90
17697;DHT22;8967;47.984;7.842;2022-10-16T03:04:36;16.00;99.90
17697;DHT22;8967;47.984;7.842;2022-10-16T03:07:03;16.00;99.90
17697;DHT22;8967;47.984;7.842;2022-10-16T03:09:30;16.00;99.90
17697;DHT22;8967;47.984;7.842;2022-10-16T03:11:57;16.00;99.90
17697;DHT22;8967;47.984;7.842;2022-10-16T03:14:24;16.00;99.90
17697;DHT22;8967;47.984;7.842;2022-10-16T03:16:51;16.00;99.90
17697;DHT22;8967;47.984;7.842;2022-10-16T03:19:19;16.00;99.90
17697;DHT22;8967;47.984;7.842;2022-10-16T03:21:46;16.00;99.90
17697;DHT22;8967;47.984;7.842;2022-10-16T03:24:13;16.00;99.90
17697;DHT22;8967;47.984;7.842;2022-10-16T03:26:42;16.00;99.90
17697;DHT22;8967;47.984;7.842;2022-10-16T03:29:09;16.00;99.90
17697;DHT22;8967;47.984;7.842;2022-10-16T03:31:36;16.00;99.90
17697;DHT22;8967;47.984;7.842;2022-10-16T03:34:03;16.00;99.90
17697;DHT22;8967;47.984;7.842;2022-10-16T03:36:33;16.00;99.90
17697;DHT22;8967;47.984;7.842;2022-10-16T03:39:00;16.00;99.90
17697;DHT22;8967;47.984;7.842;2022-10-16T03:41:27;16.00;99.90
17697;DHT22;8967;47.984;7.842;2022-10-16T03:43:54;16.00;99.90
17697;DHT22;8967;47.984;7.842;2022-10-16T03:46:21;16.00;99.90
17697;DHT22;8967;47.984;7.842;2022-10-16T03:48:48;16.10;99.90
17697;DHT22;8967;47.984;7.842;2022-10-16T03:51:15;16.10;99.90
17697;DHT22;8967;47.984;7.842;2022-10-16T03:53:43;16.10;99.90
17697;DHT22;8967;47.984;7.842;2022-10-16T03:56:10;16.10;99.90
17697;DHT22;8967;47.984;7.842;2022-10-16T03:58:37;16.10;99.90
17697;DHT22;8967;47.984;7.842;2022-10-16T04:01:04;16.10;99.90
17697;DHT22;8967;47.984;7.842;2022-10-16T04:03:31;16.10;99.90
17697;DHT22;8967;47.984;7.842;2022-10-16T04:05:58;16.10;99.90
17697;DHT22;8967;47.984;7.842;2022-10-16T04:08:24;16.10;99.90
17697;DHT22;8967;47.984;7.842;2022-10-16T04:10:53;16.10;99.90
17697;DHT22;8967;47.984;7.842;2022-10-16T04:13:20;16.10;99.90
17697;DHT22;8967;47.984;7.842;2022-10-16T04:15:49;16.10;99.90
17697;DHT22;8967;47.984;7.842;2022-10-16T04:18:16;16.10;99.90
17697;DHT22;8967;47.984;7.842;2022-10-16T04:20:43;16.10;99.90
17697;DHT22;8967;47.984;7.842;2022-10-16T04:23:10;16.10;99.90
17697;DHT22;8967;47.984;7.842;2022-10-16T04:25:45;16.10;99.90
17697;DHT22;8967;47.984;7.842;2022-10-16T04:28:13;16.10;99.90
17697;DHT22;8967;47.984;7.842;2022-10-16T04:30:40;16.10;99.90
17697;DHT22;8967;47.984;7.842;2022-10-16T04:33:08;16.10;99.90
17697;DHT22;8967;47.984;7.842;2022-10-16T04:35:35;16.10;99.90
17697;DHT22;8967;47.984;7.842;2022-10-16T04:38:02;16.10;99.90
17697;DHT22;8967;47.984;7.842;2022-10-16T04:40:31;16.10;99.90
17697;DHT22;8967;47.984;7.842;2022-10-16T04:43:01;16.10;99.90
17697;DHT22;8967;47.984;7.842;2022-10-16T04:45:30;16.10;99.90
17697;DHT22;8967;47.984;7.842;2022-10-16T04:48:00;16.10;99.90
17697;DHT22;8967;47.984;7.842;2022-10-16T04:50:26;16.10;99.90
17697;DHT22;8967;47.984;7.842;2022-10-16T04:53:04;16.10;99.90
17697;DHT22;8967;47.984;7.842;2022-10-16T04:55:31;16.10;99.90
17697;DHT22;8967;47.984;7.842;2022-10-16T04:57:58;16.10;99.90
17697;DHT22;8967;47.984;7.842;2022-10-16T05:00:25;16.10;99.90
17697;DHT22;8967;47.984;7.842;2022-10-16T05:02:53;16.10;99.90
17697;DHT22;8967;47.984;7.842;2022-10-16T05:05:20;16.10;99.90
17697;DHT22;8967;47.984;7.842;2022-10-16T05:07:48;16.10;99.90
17697;DHT22;8967;47.984;7.842;2022-10-16T05:10:16;16.10;99.90
17697;DHT22;8967;47.984;7.842;2022-10-16T05:12:43;16.10;99.90
17697;DHT22;8967;47.984;7.842;2022-10-16T05:15:13;16.10;99.90
17697;DHT22;8967;47.984;7.842;2022-10-16T05:17:39;16.10;99.90
17697;DHT22;8967;47.984;7.842;2022-10-16T05:20:08;16.10;99.90
17697;DHT22;8967;47.984;7.842;2022-10-16T05:22:35;16.10;99.90
17697;DHT22;8967;47.984;7.842;2022-10-16T05:25:02;16.10;99.90
17697;DHT22;8967;47.984;7.842;2022-10-16T05:27:31;16.10;99.90
17697;DHT22;8967;47.984;7.842;2022-10-16T05:29:58;16.10;99.90
17697;DHT22;8967;47.984;7.842;2022-10-16T05:32:28;16.10;99.90
17697;DHT22;8967;47.984;7.842;2022-10-16T05:34:55;16.10;99.90
17697;DHT22;8967;47.984;7.842;2022-10-16T05:37:23;16.10;99.90
17697;DHT22;8967;47.984;7.842;2022-10-16T05:39:50;16.10;99.90
17697;DHT22;8967;47.984;7.842;2022-10-16T05:42:17;16.10;99.90
17697;DHT22;8967;47.984;7.842;2022-10-16T05:44:44;16.10;99.90
17697;DHT22;8967;47.984;7.842;2022-10-16T05:47:13;16.10;99.90
17697;DHT22;8967;47.984;7.842;2022-10-16T05:49:40;16.10;99.90
17697;DHT22;8967;47.984;7.842;2022-10-16T05:52:07;16.10;99.90
17697;DHT22;8967;47.984;7.842;2022-10-16T05:54:35;16.10;99.90
17697;DHT22;8967;47.984;7.842;2022-10-16T05:57:02;16.10;99.90
17697;DHT22;8967;47.984;7.842;2022-10-16T05:59:31;16.10;99.90
17697;DHT22;8967;47.984;7.842;2022-10-16T06:01:58;16.10;99.90
17697;DHT22;8967;47.984;7.842;2022-10-16T06:04:25;16.10;99.90
17697;DHT22;8967;47.984;7.842;2022-10-16T06:06:52;16.20;99.90
17697;DHT22;8967;47.984;7.842;2022-10-16T06:09:21;16.20;99.90
17697;DHT22;8967;47.984;7.842;2022-10-16T06:11:49;16.20;99.90
17697;DHT22;8967;47.984;7.842;2022-10-16T06:14:16;16.10;99.90
17697;DHT22;8967;47.984;7.842;2022-10-16T06:16:43;16.10;99.90
17697;DHT22;8967;47.984;7.842;2022-10-16T06:19:10;16.20;99.90
17697;DHT22;8967;47.984;7.842;2022-10-16T06:21:37;16.20;99.90
17697;DHT22;8967;47.984;7.842;2022-10-16T06:24:04;16.20;99.90
17697;DHT22;8967;47.984;7.842;2022-10-16T06:26:33;16.20;99.90
17697;DHT22;8967;47.984;7.842;2022-10-16T06:29:01;16.20;99.90
17697;DHT22;8967;47.984;7.842;2022-10-16T06:31:29;16.20;99.90
17697;DHT22;8967;47.984;7.842;2022-10-16T06:33:57;16.20;99.90
17697;DHT22;8967;47.984;7.842;2022-10-16T06:36:25;16.20;99.90
17697;DHT22;8967;47.984;7.842;2022-10-16T06:38:55;16.20;99.90
17697;DHT22;8967;47.984;7.842;2022-10-16T06:41:22;16.30;99.90
17697;DHT22;8967;47.984;7.842;2022-10-16T06:43:50;16.20;99.90
17697;DHT22;8967;47.984;7.842;2022-10-16T06:46:20;16.30;99.90
17697;DHT22;8967;47.984;7.842;2022-10-16T06:48:48;16.30;99.90
17697;DHT22;8967;47.984;7.842;2022-10-16T06:51:17;16.30;99.90
17697;DHT22;8967;47.984;7.842;2022-10-16T06:53:46;16.30;99.90
17697;DHT22;8967;47.984;7.842;2022-10-16T06:56:16;16.30;99.90
17697;DHT22;8967;47.984;7.842;2022-10-16T06:58:46;16.30;99.90
17697;DHT22;8967;47.984;7.842;2022-10-16T07:01:13;16.30;99.90
17697;DHT22;8967;47.984;7.842;2022-10-16T07:03:44;16.30;99.90
17697;DHT22;8967;47.984;7.842;2022-10-16T07:06:13;16.30;99.90
17697;DHT22;8967;47.984;7.842;2022-10-16T07:08:42;16.30;99.90
17697;DHT22;8967;47.984;7.842;2022-10-16T07:11:10;16.30;99.90
17697;DHT22;8967;47.984;7.842;2022-10-16T07:13:39;16.30;99.90
17697;DHT22;8967;47.984;7.842;2022-10-16T07:16:07;16.30;99.90
17697;DHT22;8967;47.984;7.842;2022-10-16T07:18:35;16.30;99.90
17697;DHT22;8967;47.984;7.842;2022-10-16T07:21:07;16.30;99.90
17697;DHT22;8967;47.984;7.842;2022-10-16T07:23:34;16.30;99.90
17697;DHT22;8967;47.984;7.842;2022-10-16T07:26:02;16.30;99.90
17697;DHT22;8967;47.984;7.842;2022-10-16T07:28:32;16.30;99.90
17697;DHT22;8967;47.984;7.842;2022-10-16T07:31:01;16.40;99.90
17697;DHT22;8967;47.984;7.842;2022-10-16T07:33:28;16.40;99.90
17697;DHT22;8967;47.984;7.842;2022-10-16T07:35:55;16.40;99.90
17697;DHT22;8967;47.984;7.842;2022-10-16T07:38:24;16.40;99.90
17697;DHT22;8967;47.984;7.842;2022-10-16T07:40:56;16.40;99.90
17697;DHT22;8967;47.984;7.842;2022-10-16T07:43:24;16.40;99.90
17697;DHT22;8967;47.984;7.842;2022-10-16T07:45:51;16.50;99.90
17697;DHT22;8967;47.984;7.842;2022-10-16T07:48:18;16.50;99.90
17697;DHT22;8967;47.984;7.842;2022-10-16T07:50:46;16.50;99.90
17697;DHT22;8967;47.984;7.842;2022-10-16T07:53:13;16.50;99.90
17697;DHT22;8967;47.984;7.842;2022-10-16T07:55:44;16.50;99.90
17697;DHT22;8967;47.984;7.842;2022-10-16T07:58:10;16.60;99.90
17697;DHT22;8967;47.984;7.842;2022-10-16T08:00:38;16.60;99.90
17697;DHT22;8967;47.984;7.842;2022-10-16T08:03:05;16.70;99.90
17697;DHT22;8967;47.984;7.842;2022-10-16T08:05:32;16.70;99.90
17697;DHT22;8967;47.984;7.842;2022-10-16T08:08:00;16.70;99.90
17697;DHT22;8967;47.984;7.842;2022-10-16T08:10:28;16.80;99.90
17697;DHT22;8967;47.984;7.842;2022-10-16T08:12:56;16.80;99.90
17697;DHT22;8967;47.984;7.842;2022-10-16T08:15:23;16.80;99.90
17697;DHT22;8967;47.984;7.842;2022-10-16T08:17:58;16.90;99.90
17697;DHT22;8967;47.984;7.842;2022-10-16T08:20:25;17.00;99.90
17697;DHT22;8967;47.984;7.842;2022-10-16T08:22:53;17.00;99.90
17697;DHT22;8967;47.984;7.842;2022-10-16T08:25:21;17.10;99.90
17697;DHT22;8967;47.984;7.842;2022-10-16T08:27:48;17.10;99.90
17697;DHT22;8967;47.984;7.842;2022-10-16T08:30:17;17.10;99.90
17697;DHT22;8967;47.984;7.842;2022-10-16T08:32:45;17.20;99.90
17697;DHT22;8967;47.984;7.842;2022-10-16T08:35:12;17.20;99.90
17697;DHT22;8967;47.984;7.842;2022-10-16T08:37:41;17.30;99.90
17697;DHT22;8967;47.984;7.842;2022-10-16T08:40:16;17.30;99.90
17697;DHT22;8967;47.984;7.842;2022-10-16T08:42:55;17.30;99.90
17697;DHT22;8967;47.984;7.842;2022-10-16T08:45:37;17.40;99.90
17697;DHT22;8967;47.984;7.842;2022-10-16T08:48:17;17.40;99.90
17697;DHT22;8967;47.984;7.842;2022-10-16T08:50:48;17.50;99.90
17697;DHT22;8967;47.984;7.842;2022-10-16T08:53:22;17.50;99.90
17697;DHT22;8967;47.984;7.842;2022-10-16T08:55:51;17.50;99.90
17697;DHT22;8967;47.984;7.842;2022-10-16T08:58:28;17.60;99.90
17697;DHT22;8967;47.984;7.842;2022-10-16T09:01:00;17.60;99.90
17697;DHT22;8967;47.984;7.842;2022-10-16T09:03:37;17.60;99.90
17697;DHT22;8967;47.984;7.842;2022-10-16T09:06:26;17.70;99.90
17697;DHT22;8967;47.984;7.842;2022-10-16T09:09:09;17.70;99.90
17697;DHT22;8967;47.984;7.842;2022-10-16T09:11:45;17.80;99.90
17697;DHT22;8967;47.984;7.842;2022-10-16T09:14:25;17.90;99.90
17697;DHT22;8967;47.984;7.842;2022-10-16T09:17:20;17.90;99.90
17697;DHT22;8967;47.984;7.842;2022-10-16T09:19:53;18.00;99.90
17697;DHT22;8967;47.984;7.842;2022-10-16T09:22:26;18.10;99.90
17697;DHT22;8967;47.984;7.842;2022-10-16T09:24:55;18.10;99.90
17697;DHT22;8967;47.984;7.842;2022-10-16T09:27:26;18.20;99.90
17697;DHT22;8967;47.984;7.842;2022-10-16T09:29:53;18.20;99.90
17697;DHT22;8967;47.984;7.842;2022-10-16T09:32:22;18.20;99.90
17697;DHT22;8967;47.984;7.842;2022-10-16T09:34:52;18.30;99.90
17697;DHT22;8967;47.984;7.842;2022-10-16T09:37:23;18.40;99.90
17697;DHT22;8967;47.984;7.842;2022-10-16T09:39:52;18.50;99.90
17697;DHT22;8967;47.984;7.842;2022-10-16T09:42:21;18.60;99.90
17697;DHT22;8967;47.984;7.842;2022-10-16T09:44:50;18.70;99.90
17697;DHT22;8967;47.984;7.842;2022-10-16T09:47:23;18.70;99.90
17697;DHT22;8967;47.984;7.842;2022-10-16T09:49:51;18.80;99.90
17697;DHT22;8967;47.984;7.842;2022-10-16T09:52:19;18.90;99.90
17697;DHT22;8967;47.984;7.842;2022-10-16T09:54:50;19.00;99.90
17697;DHT22;8967;47.984;7.842;2022-10-16T09:57:17;19.10;99.90
17697;DHT22;8967;47.984;7.842;2022-10-16T09:59:48;19.20;99.90
17697;DHT22;8967;47.984;7.842;2022-10-16T10:02:17;19.30;99.90
17697;DHT22;8967;47.984;7.842;2022-10-16T10:04:51;19.50;99.90
17697;DHT22;8967;47.984;7.842;2022-10-16T10:07:26;19.60;99.90
17697;DHT22;8967;47.984;7.842;2022-10-16T10:09:53;19.70;99.90
17697;DHT22;8967;47.984;7.842;2022-10-16T10:12:23;19.80;99.90
17697;DHT22;8967;47.984;7.842;2022-10-16T10:14:52;19.90;99.90
17697;DHT22;8967;47.984;7.842;2022-10-16T10:17:21;20.00;99.90
17697;DHT22;8967;47.984;7.842;2022-10-16T10:19:52;20.00;99.90
17697;DHT22;8967;47.984;7.842;2022-10-16T10:22:25;20.20;99.90
17697;DHT22;8967;47.984;7.842;2022-10-16T10:24:56;20.20;99.90
17697;DHT22;8967;47.984;7.842;2022-10-16T10:27:32;20.20;99.90
17697;DHT22;8967;47.984;7.842;2022-10-16T10:30:04;20.30;99.50
17697;DHT22;8967;47.984;7.842;2022-10-16T10:32:36;20.30;99.00
17697;DHT22;8967;47.984;7.842;2022-10-16T10:35:15;20.40;98.60
17697;DHT22;8967;47.984;7.842;2022-10-16T10:38:00;20.40;97.80
17697;DHT22;8967;47.984;7.842;2022-10-16T10:40:39;20.50;97.40
17697;DHT22;8967;47.984;7.842;2022-10-16T10:43:18;20.50;97.20
17697;DHT22;8967;47.984;7.842;2022-10-16T10:45:52;20.60;97.30
17697;DHT22;8967;47.984;7.842;2022-10-16T10:48:43;20.60;97.00
17697;DHT22;8967;47.984;7.842;2022-10-16T10:51:20;20.80;97.20
17697;DHT22;8967;47.984;7.842;2022-10-16T10:53:58;20.80;97.20
17697;DHT22;8967;47.984;7.842;2022-10-16T10:56:45;20.80;96.10
17697;DHT22;8967;47.984;7.842;2022-10-16T10:59:33;20.90;95.30
17697;DHT22;8967;47.984;7.842;2022-10-16T11:02:13;20.90;94.50
17697;DHT22;8967;47.984;7.842;2022-10-16T11:05:05;20.90;93.70
17697;DHT22;8967;47.984;7.842;2022-10-16T11:07:41;21.00;93.60
17697;DHT22;8967;47.984;7.842;2022-10-16T11:10:14;21.00;93.10
17697;DHT22;8967;47.984;7.842;2022-10-16T11:12:45;21.10;92.40
17697;DHT22;8967;47.984;7.842;2022-10-16T11:15:17;21.10;92.10
17697;DHT22;8967;47.984;7.842;2022-10-16T11:17:49;21.10;92.20
17697;DHT22;8967;47.984;7.842;2022-10-16T11:20:20;21.20;91.70
17697;DHT22;8967;47.984;7.842;2022-10-16T11:22:52;21.20;91.10
17697;DHT22;8967;47.984;7.842;2022-10-16T11:25:23;21.20;90.70
17697;DHT22;8967;47.984;7.842;2022-10-16T11:27:57;21.30;90.40
17697;DHT22;8967;47.984;7.842;2022-10-16T11:30:26;21.30;90.40
17697;DHT22;8967;47.984;7.842;2022-10-16T11:33:03;21.30;90.50
17697;DHT22;8967;47.984;7.842;2022-10-16T11:35:39;21.40;90.70
17697;DHT22;8967;47.984;7.842;2022-10-16T11:38:17;21.40;90.20
17697;DHT22;8967;47.984;7.842;2022-10-16T11:40:50;21.40;89.90
17697;DHT22;8967;47.984;7.842;2022-10-16T11:43:24;21.50;89.80
17697;DHT22;8967;47.984;7.842;2022-10-16T11:45:54;21.50;88.80
17697;DHT22;8967;47.984;7.842;2022-10-16T11:48:26;21.50;87.80
17697;DHT22;8967;47.984;7.842;2022-10-16T11:50:57;21.60;87.90
17697;DHT22;8967;47.984;7.842;2022-10-16T11:53:38;21.70;87.60
17697;DHT22;8967;47.984;7.842;2022-10-16T11:56:12;21.70;87.50
17697;DHT22;8967;47.984;7.842;2022-10-16T11:58:44;21.70;87.30
17697;DHT22;8967;47.984;7.842;2022-10-16T12:01:18;21.70;86.70
17697;DHT22;8967;47.984;7.842;2022-10-16T12:03:56;21.70;86.80
17697;DHT22;8967;47.984;7.842;2022-10-16T12:06:31;21.70;87.50
17697;DHT22;8967;47.984;7.842;2022-10-16T12:09:03;21.70;87.40
17697;DHT22;8967;47.984;7.842;2022-10-16T12:11:36;21.70;87.30
17697;DHT22;8967;47.984;7.842;2022-10-16T12:14:06;21.70;87.30
17697;DHT22;8967;47.984;7.842;2022-10-16T12:16:33;21.70;86.90
17697;DHT22;8967;47.984;7.842;2022-10-16T12:19:12;21.70;87.00
17697;DHT22;8967;47.984;7.842;2022-10-16T12:21:39;21.70;87.40
17697;DHT22;8967;47.984;7.842;2022-10-16T12:24:28;21.70;87.40
17697;DHT22;8967;47.984;7.842;2022-10-16T12:26:56;21.70;87.10
17697;DHT22;8967;47.984;7.842;2022-10-16T12:29:31;21.80;87.50
17697;DHT22;8967;47.984;7.842;2022-10-16T12:31:59;21.80;87.70
17697;DHT22;8967;47.984;7.842;2022-10-16T12:34:29;21.80;87.70
17697;DHT22;8967;47.984;7.842;2022-10-16T12:37:06;21.90;87.40
17697;DHT22;8967;47.984;7.842;2022-10-16T12:39:35;21.80;86.90
17697;DHT22;8967;47.984;7.842;2022-10-16T12:42:05;21.80;86.40
17697;DHT22;8967;47.984;7.842;2022-10-16T12:44:34;21.90;86.70
17697;DHT22;8967;47.984;7.842;2022-10-16T12:47:04;21.90;86.70
17697;DHT22;8967;47.984;7.842;2022-10-16T12:49:36;21.90;86.40
17697;DHT22;8967;47.984;7.842;2022-10-16T12:52:25;21.90;86.30
17697;DHT22;8967;47.984;7.842;2022-10-16T12:54:56;21.90;85.80
17697;DHT22;8967;47.984;7.842;2022-10-16T12:57:45;21.90;85.20
17697;DHT22;8967;47.984;7.842;2022-10-16T13:00:22;21.90;84.60
17697;DHT22;8967;47.984;7.842;2022-10-16T13:06:10;21.80;84.00
17697;DHT22;8967;47.984;7.842;2022-10-16T13:08:58;21.80;83.60
17697;DHT22;8967;47.984;7.842;2022-10-16T13:11:41;21.80;83.70
17697;DHT22;8967;47.984;7.842;2022-10-16T13:14:32;21.80;84.40
17697;DHT22;8967;47.984;7.842;2022-10-16T13:17:11;21.80;83.70
17697;DHT22;8967;47.984;7.842;2022-10-16T13:19:44;21.80;83.30
17697;DHT22;8967;47.984;7.842;2022-10-16T13:22:21;21.80;83.20
17697;DHT22;8967;47.984;7.842;2022-10-16T13:24:57;21.80;82.70
17697;DHT22;8967;47.984;7.842;2022-10-16T13:27:36;21.80;83.00
17697;DHT22;8967;47.984;7.842;2022-10-16T13:30:12;21.70;82.90
17697;DHT22;8967;47.984;7.842;2022-10-16T13:32:43;21.70;82.30
17697;DHT22;8967;47.984;7.842;2022-10-16T13:35:22;21.70;82.50
17697;DHT22;8967;47.984;7.842;2022-10-16T13:37:50;21.70;82.30
17697;DHT22;8967;47.984;7.842;2022-10-16T13:40:22;21.70;82.00
17697;DHT22;8967;47.984;7.842;2022-10-16T13:42:54;21.70;82.00
17697;DHT22;8967;47.984;7.842;2022-10-16T13:45:23;21.70;81.70
17697;DHT22;8967;47.984;7.842;2022-10-16T13:48:01;21.70;82.00
17697;DHT22;8967;47.984;7.842;2022-10-16T13:50:28;21.60;81.80
17697;DHT22;8967;47.984;7.842;2022-10-16T13:53:03;21.60;81.80
17697;DHT22;8967;47.984;7.842;2022-10-16T13:55:31;21.60;82.20
17697;DHT22;8967;47.984;7.842;2022-10-16T13:58:07;21.60;82.20
17697;DHT22;8967;47.984;7.842;2022-10-16T14:00:34;21.50;82.40
17697;DHT22;8967;47.984;7.842;2022-10-16T14:03:04;21.50;82.50
17697;DHT22;8967;47.984;7.842;2022-10-16T14:05:32;21.50;82.70
17697;DHT22;8967;47.984;7.842;2022-10-16T14:08:00;21.50;82.40
17697;DHT22;8967;47.984;7.842;2022-10-16T14:10:29;21.50;81.90
17697;DHT22;8967;47.984;7.842;2022-10-16T14:12:58;21.50;81.60
17697;DHT22;8967;47.984;7.842;2022-10-16T14:15:27;21.50;81.40
17697;DHT22;8967;47.984;7.842;2022-10-16T14:17:55;21.40;81.50
17697;DHT22;8967;47.984;7.842;2022-10-16T14:20:25;21.40;81.60
17697;DHT22;8967;47.984;7.842;2022-10-16T14:23:01;21.40;81.80
17697;DHT22;8967;47.984;7.842;2022-10-16T14:25:30;21.40;82.00
17697;DHT22;8967;47.984;7.842;2022-10-16T14:28:01;21.50;82.20
17697;DHT22;8967;47.984;7.842;2022-10-16T14:30:33;21.40;81.90
17697;DHT22;8967;47.984;7.842;2022-10-16T14:33:02;21.40;82.40
17697;DHT22;8967;47.984;7.842;2022-10-16T14:35:31;21.40;81.60
17697;DHT22;8967;47.984;7.842;2022-10-16T14:38:00;21.40;82.10
17697;DHT22;8967;47.984;7.842;2022-10-16T14:40:29;21.40;81.70
17697;DHT22;8967;47.984;7.842;2022-10-16T14:42:57;21.40;81.30
17697;DHT22;8967;47.984;7.842;2022-10-16T14:45:27;21.40;81.60
17697;DHT22;8967;47.984;7.842;2022-10-16T14:47:58;21.40;82.20
17697;DHT22;8967;47.984;7.842;2022-10-16T14:50:26;21.40;82.20
17697;DHT22;8967;47.984;7.842;2022-10-16T14:52:53;21.40;83.00
17697;DHT22;8967;47.984;7.842;2022-10-16T14:55:20;21.40;84.00
17697;DHT22;8967;47.984;7.842;2022-10-16T14:57:47;21.40;85.20
17697;DHT22;8967;47.984;7.842;2022-10-16T15:00:19;21.40;84.60
17697;DHT22;8967;47.984;7.842;2022-10-16T15:02:48;21.30;83.80
17697;DHT22;8967;47.984;7.842;2022-10-16T15:05:19;21.30;83.90
17697;DHT22;8967;47.984;7.842;2022-10-16T15:07:47;21.30;83.60
17697;DHT22;8967;47.984;7.842;2022-10-16T15:10:15;21.30;83.20
17697;DHT22;8967;47.984;7.842;2022-10-16T15:12:42;21.30;83.70
17697;DHT22;8967;47.984;7.842;2022-10-16T15:15:24;21.30;83.30
17697;DHT22;8967;47.984;7.842;2022-10-16T15:17:55;21.30;85.30
17697;DHT22;8967;47.984;7.842;2022-10-16T15:20:25;21.30;87.20
17697;DHT22;8967;47.984;7.842;2022-10-16T15:22:52;21.30;87.40
17697;DHT22;8967;47.984;7.842;2022-10-16T15:25:30;21.30;87.20
17697;DHT22;8967;47.984;7.842;2022-10-16T15:27:58;21.30;87.70
17697;DHT22;8967;47.984;7.842;2022-10-16T15:30:25;21.30;89.20
17697;DHT22;8967;47.984;7.842;2022-10-16T15:32:55;21.30;90.10
17697;DHT22;8967;47.984;7.842;2022-10-16T15:35:27;21.20;90.60
17697;DHT22;8967;47.984;7.842;2022-10-16T15:37:56;21.20;91.00
17697;DHT22;8967;47.984;7.842;2022-10-16T15:40:24;21.20;91.30
17697;DHT22;8967;47.984;7.842;2022-10-16T15:42:53;21.10;91.80
17697;DHT22;8967;47.984;7.842;2022-10-16T15:45:20;21.10;92.00
17697;DHT22;8967;47.984;7.842;2022-10-16T15:47:49;21.10;92.60
17697;DHT22;8967;47.984;7.842;2022-10-16T15:50:16;21.00;92.90
17697;DHT22;8967;47.984;7.842;2022-10-16T15:52:47;21.00;93.20
17697;DHT22;8967;47.984;7.842;2022-10-16T15:55:14;20.90;93.50
17697;DHT22;8967;47.984;7.842;2022-10-16T15:57:41;20.90;94.00
17697;DHT22;8967;47.984;7.842;2022-10-16T16:00:13;20.80;94.00
17697;DHT22;8967;47.984;7.842;2022-10-16T16:02:41;20.80;94.40
17697;DHT22;8967;47.984;7.842;2022-10-16T16:05:11;20.80;94.80
17697;DHT22;8967;47.984;7.842;2022-10-16T16:07:38;20.70;95.10
17697;DHT22;8967;47.984;7.842;2022-10-16T16:10:09;20.60;95.40